sensor_id;sensor_type;location;lat;lon;timestamp;temperature;humidity
47546;DHT22;50104;52.002;4.688;2023-05-07T00:01:21;16.30;75.50
47546;DHT22;50104;52.002;4.688;2023-05-07T00:06:22;16.30;75.60
47546;DHT22;50104;52.002;4.688;2023-05-07T00:11:23;16.30;75.60
47546;DHT22;50104;52.002;4.688;2023-05-07T00:16:24;16.20;75.60
47546;DHT22;50104;52.002;4.688;2023-05-07T00:21:25;16.20;75.70
47546;DHT22;50104;52.002;4.688;2023-05-07T00:26:27;16.20;75.90
47546;DHT22;50104;52.002;4.688;2023-05-07T00:31:27;16.20;75.70
47546;DHT22;50104;52.002;4.688;2023-05-07T00:36:29;16.20;75.70
47546;DHT22;50104;52.002;4.688;2023-05-07T00:41:30;16.20;75.60
47546;DHT22;50104;52.002;4.688;2023-05-07T00:46:32;16.20;75.70
47546;DHT22;50104;52.002;4.688;2023-05-07T00:51:33;16.20;75.90
47546;DHT22;50104;52.002;4.688;2023-05-07T00:56:34;16.20;76.00
47546;DHT22;50104;52.002;4.688;2023-05-07T01:01:35;16.20;75.90
47546;DHT22;50104;52.002;4.688;2023-05-07T01:06:37;16.20;75.80
47546;DHT22;50104;52.002;4.688;2023-05-07T01:11:40;16.20;75.80
47546;DHT22;50104;52.002;4.688;2023-05-07T01:16:41;16.20;75.90
47546;DHT22;50104;52.002;4.688;2023-05-07T01:21:46;16.20;76.00
47546;DHT22;50104;52.002;4.688;2023-05-07T01:26:48;16.20;76.10
47546;DHT22;50104;52.002;4.688;2023-05-07T01:31:50;16.20;76.30
47546;DHT22;50104;52.002;4.688;2023-05-07T01:36:53;16.20;76.30
47546;DHT22;50104;52.002;4.688;2023-05-07T01:41:56;16.10;76.20
47546;DHT22;50104;52.002;4.688;2023-05-07T01:46:57;16.10;76.30
47546;DHT22;50104;52.002;4.688;2023-05-07T01:51:59;16.10;76.10
47546;DHT22;50104;52.002;4.688;2023-05-07T01:57:00;16.10;76.40
47546;DHT22;50104;52.002;4.688;2023-05-07T02:02:01;16.10;76.40
47546;DHT22;50104;52.002;4.688;2023-05-07T02:07:01;16.00;76.40
47546;DHT22;50104;52.002;4.688;2023-05-07T02:12:03;16.00;76.70
47546;DHT22;50104;52.002;4.688;2023-05-07T02:17:04;16.00;76.60
47546;DHT22;50104;52.002;4.688;2023-05-07T02:22:05;16.00;77.10
47546;DHT22;50104;52.002;4.688;2023-05-07T02:27:05;16.00;77.00
47546;DHT22;50104;52.002;4.688;2023-05-07T02:32:06;16.00;76.90
47546;DHT22;50104;52.002;4.688;2023-05-07T02:37:08;15.90;77.00
47546;DHT22;50104;52.002;4.688;2023-05-07T02:42:09;15.90;77.10
47546;DHT22;50104;52.002;4.688;2023-05-07T02:47:10;15.90;77.00
47546;DHT22;50104;52.002;4.688;2023-05-07T02:52:10;15.90;76.90
47546;DHT22;50104;52.002;4.688;2023-05-07T02:57:11;15.90;77.20
47546;DHT22;50104;52.002;4.688;2023-05-07T03:02:12;15.90;77.00
47546;DHT22;50104;52.002;4.688;2023-05-07T03:07:13;15.90;76.90
47546;DHT22;50104;52.002;4.688;2023-05-07T03:12:14;15.90;76.80
47546;DHT22;50104;52.002;4.688;2023-05-07T03:17:16;15.90;77.00
47546;DHT22;50104;52.002;4.688;2023-05-07T03:22:16;15.90;76.90
47546;DHT22;50104;52.002;4.688;2023-05-07T03:27:17;15.90;77.00
47546;DHT22;50104;52.002;4.688;2023-05-07T03:32:19;15.80;76.90
47546;DHT22;50104;52.002;4.688;2023-05-07T03:37:19;15.80;76.90
47546;DHT22;50104;52.002;4.688;2023-05-07T03:42:23;15.80;76.90
47546;DHT22;50104;52.002;4.688;2023-05-07T03:47:24;15.80;76.90
47546;DHT22;50104;52.002;4.688;2023-05-07T03:52:25;15.80;77.10
47546;DHT22;50104;52.002;4.688;2023-05-07T03:57:26;15.80;76.90
47546;DHT22;50104;52.002;4.688;2023-05-07T04:02:27;15.80;76.80
47546;DHT22;50104;52.002;4.688;2023-05-07T04:07:28;15.80;76.80
47546;DHT22;50104;52.002;4.688;2023-05-07T04:12:28;15.80;76.90
47546;DHT22;50104;52.002;4.688;2023-05-07T04:17:29;15.80;77.10
47546;DHT22;50104;52.002;4.688;2023-05-07T04:22:30;15.80;77.10
47546;DHT22;50104;52.002;4.688;2023-05-07T04:27:31;15.80;77.00
47546;DHT22;50104;52.002;4.688;2023-05-07T04:32:32;15.80;76.90
47546;DHT22;50104;52.002;4.688;2023-05-07T04:37:33;15.80;77.20
47546;DHT22;50104;52.002;4.688;2023-05-07T04:42:34;15.80;77.30
47546;DHT22;50104;52.002;4.688;2023-05-07T04:47:36;15.80;77.70
47546;DHT22;50104;52.002;4.688;2023-05-07T04:52:37;15.80;77.70
47546;DHT22;50104;52.002;4.688;2023-05-07T04:57:38;15.80;77.30
47546;DHT22;50104;52.002;4.688;2023-05-07T05:02:41;15.80;77.50
47546;DHT22;50104;52.002;4.688;2023-05-07T05:07:41;15.80;77.90
47546;DHT22;50104;52.002;4.688;2023-05-07T05:12:43;15.80;78.00
47546;DHT22;50104;52.002;4.688;2023-05-07T05:17:44;15.80;77.50
47546;DHT22;50104;52.002;4.688;2023-05-07T05:22:45;15.90;77.40
47546;DHT22;50104;52.002;4.688;2023-05-07T05:27:46;15.90;77.20
47546;DHT22;50104;52.002;4.688;2023-05-07T05:32:46;15.90;77.50
47546;DHT22;50104;52.002;4.688;2023-05-07T05:37:47;15.90;77.80
47546;DHT22;50104;52.002;4.688;2023-05-07T05:42:48;16.00;77.70
47546;DHT22;50104;52.002;4.688;2023-05-07T05:47:49;16.00;77.60
47546;DHT22;50104;52.002;4.688;2023-05-07T05:52:50;16.00;77.40
47546;DHT22;50104;52.002;4.688;2023-05-07T05:57:51;16.10;77.30
47546;DHT22;50104;52.002;4.688;2023-05-07T06:02:52;16.10;77.20
47546;DHT22;50104;52.002;4.688;2023-05-07T06:07:52;16.10;77.10
47546;DHT22;50104;52.002;4.688;2023-05-07T06:12:53;16.20;77.10
47546;DHT22;50104;52.002;4.688;2023-05-07T06:17:54;16.20;77.30
47546;DHT22;50104;52.002;4.688;2023-05-07T06:22:57;16.20;77.10
47546;DHT22;50104;52.002;4.688;2023-05-07T06:27:58;16.30;77.20
47546;DHT22;50104;52.002;4.688;2023-05-07T06:33:03;16.30;77.40
47546;DHT22;50104;52.002;4.688;2023-05-07T06:38:04;16.30;77.50
47546;DHT22;50104;52.002;4.688;2023-05-07T06:43:05;16.40;77.60
47546;DHT22;50104;52.002;4.688;2023-05-07T06:48:11;16.40;77.30
47546;DHT22;50104;52.002;4.688;2023-05-07T06:53:12;16.50;77.20
47546;DHT22;50104;52.002;4.688;2023-05-07T06:58:13;16.50;77.30
47546;DHT22;50104;52.002;4.688;2023-05-07T07:03:13;16.60;77.50
47546;DHT22;50104;52.002;4.688;2023-05-07T07:08:15;16.60;77.70
47546;DHT22;50104;52.002;4.688;2023-05-07T07:13:18;16.60;79.30
47546;DHT22;50104;52.002;4.688;2023-05-07T07:18:20;16.70;79.20
47546;DHT22;50104;52.002;4.688;2023-05-07T07:23:20;16.70;79.40
47546;DHT22;50104;52.002;4.688;2023-05-07T07:28:22;16.80;78.30
47546;DHT22;50104;52.002;4.688;2023-05-07T07:33:23;16.80;78.50
47546;DHT22;50104;52.002;4.688;2023-05-07T07:38:24;16.80;79.10
47546;DHT22;50104;52.002;4.688;2023-05-07T07:43:25;16.90;79.60
47546;DHT22;50104;52.002;4.688;2023-05-07T07:48:25;17.00;79.80
47546;DHT22;50104;52.002;4.688;2023-05-07T07:53:26;17.20;79.90
47546;DHT22;50104;52.002;4.688;2023-05-07T07:58:27;17.30;80.00
47546;DHT22;50104;52.002;4.688;2023-05-07T08:03:28;17.50;80.80
47546;DHT22;50104;52.002;4.688;2023-05-07T08:08:32;17.80;80.30
47546;DHT22;50104;52.002;4.688;2023-05-07T08:13:33;18.00;80.30
47546;DHT22;50104;52.002;4.688;2023-05-07T08:18:33;18.20;81.10
47546;DHT22;50104;52.002;4.688;2023-05-07T08:23:34;18.50;81.50
47546;DHT22;50104;52.002;4.688;2023-05-07T08:28:35;18.70;82.10
47546;DHT22;50104;52.002;4.688;2023-05-07T08:33:36;19.00;81.90
47546;DHT22;50104;52.002;4.688;2023-05-07T08:38:38;19.20;81.50
47546;DHT22;50104;52.002;4.688;2023-05-07T08:43:41;19.50;80.60
47546;DHT22;50104;52.002;4.688;2023-05-07T08:48:42;19.70;80.30
47546;DHT22;50104;52.002;4.688;2023-05-07T08:53:43;19.80;79.40
47546;DHT22;50104;52.002;4.688;2023-05-07T08:58:45;20.00;80.50
47546;DHT22;50104;52.002;4.688;2023-05-07T09:03:46;20.30;81.00
47546;DHT22;50104;52.002;4.688;2023-05-07T09:08:52;20.50;80.30
47546;DHT22;50104;52.002;4.688;2023-05-07T09:13:55;20.80;78.30
47546;DHT22;50104;52.002;4.688;2023-05-07T09:18:59;21.00;77.90
47546;DHT22;50104;52.002;4.688;2023-05-07T09:24:03;21.20;78.30
47546;DHT22;50104;52.002;4.688;2023-05-07T09:29:05;21.40;77.20
47546;DHT22;50104;52.002;4.688;2023-05-07T09:34:07;21.60;77.40
47546;DHT22;50104;52.002;4.688;2023-05-07T09:39:08;21.80;76.20
47546;DHT22;50104;52.002;4.688;2023-05-07T09:44:09;22.00;75.60
47546;DHT22;50104;52.002;4.688;2023-05-07T09:49:21;22.10;75.30
47546;DHT22;50104;52.002;4.688;2023-05-07T09:54:23;22.30;75.00
47546;DHT22;50104;52.002;4.688;2023-05-07T09:59:25;22.40;75.00
47546;DHT22;50104;52.002;4.688;2023-05-07T10:04:29;22.50;75.10
47546;DHT22;50104;52.002;4.688;2023-05-07T10:09:32;22.70;74.90
47546;DHT22;50104;52.002;4.688;2023-05-07T10:14:33;22.80;74.80
47546;DHT22;50104;52.002;4.688;2023-05-07T10:19:36;22.90;74.50
47546;DHT22;50104;52.002;4.688;2023-05-07T10:24:39;23.10;74.30
47546;DHT22;50104;52.002;4.688;2023-05-07T10:30:03;23.20;74.10
47546;DHT22;50104;52.002;4.688;2023-05-07T10:35:20;23.40;74.10
47546;DHT22;50104;52.002;4.688;2023-05-07T10:40:23;23.60;74.30
47546;DHT22;50104;52.002;4.688;2023-05-07T10:45:24;23.80;73.70
47546;DHT22;50104;52.002;4.688;2023-05-07T10:50:25;24.00;73.80
47546;DHT22;50104;52.002;4.688;2023-05-07T10:55:26;24.20;73.90
47546;DHT22;50104;52.002;4.688;2023-05-07T11:00:41;24.40;73.60
47546;DHT22;50104;52.002;4.688;2023-05-07T11:05:42;24.70;73.60
47546;DHT22;50104;52.002;4.688;2023-05-07T11:10:55;24.90;73.10
47546;DHT22;50104;52.002;4.688;2023-05-07T11:15:56;25.10;73.00
47546;DHT22;50104;52.002;4.688;2023-05-07T11:20:59;25.30;72.00
47546;DHT22;50104;52.002;4.688;2023-05-07T11:31:04;25.50;71.60
47546;DHT22;50104;52.002;4.688;2023-05-07T11:36:08;25.70;71.10
47546;DHT22;50104;52.002;4.688;2023-05-07T11:41:09;25.70;70.00
47546;DHT22;50104;52.002;4.688;2023-05-07T11:46:12;25.80;70.30
47546;DHT22;50104;52.002;4.688;2023-05-07T11:51:22;25.90;70.00
47546;DHT22;50104;52.002;4.688;2023-05-07T11:56:24;26.00;70.00
47546;DHT22;50104;52.002;4.688;2023-05-07T12:01:25;26.10;69.50
47546;DHT22;50104;52.002;4.688;2023-05-07T12:06:26;26.20;69.90
47546;DHT22;50104;52.002;4.688;2023-05-07T12:11:27;26.20;69.90
47546;DHT22;50104;52.002;4.688;2023-05-07T12:16:29;26.30;70.00
47546;DHT22;50104;52.002;4.688;2023-05-07T12:21:30;26.30;69.60
47546;DHT22;50104;52.002;4.688;2023-05-07T12:26:31;26.40;69.20
47546;DHT22;50104;52.002;4.688;2023-05-07T12:31:32;26.40;69.00
47546;DHT22;50104;52.002;4.688;2023-05-07T12:36:40;26.40;68.50
47546;DHT22;50104;52.002;4.688;2023-05-07T12:41:57;26.30;68.10
47546;DHT22;50104;52.002;4.688;2023-05-07T12:47:02;26.30;67.70
47546;DHT22;50104;52.002;4.688;2023-05-07T12:52:04;26.10;67.60
47546;DHT22;50104;52.002;4.688;2023-05-07T12:57:07;26.00;67.30
47546;DHT22;50104;52.002;4.688;2023-05-07T13:02:09;25.90;67.00
47546;DHT22;50104;52.002;4.688;2023-05-07T13:07:10;25.70;67.50
47546;DHT22;50104;52.002;4.688;2023-05-07T13:12:11;25.50;67.70
47546;DHT22;50104;52.002;4.688;2023-05-07T13:17:12;25.30;67.50
47546;DHT22;50104;52.002;4.688;2023-05-07T13:22:13;25.10;67.80
47546;DHT22;50104;52.002;4.688;2023-05-07T13:27:13;24.80;67.60
47546;DHT22;50104;52.002;4.688;2023-05-07T13:32:14;24.60;67.80
47546;DHT22;50104;52.002;4.688;2023-05-07T13:37:15;24.40;68.70
47546;DHT22;50104;52.002;4.688;2023-05-07T13:42:16;24.20;68.90
47546;DHT22;50104;52.002;4.688;2023-05-07T13:47:17;24.00;69.10
47546;DHT22;50104;52.002;4.688;2023-05-07T13:52:19;23.80;68.70
47546;DHT22;50104;52.002;4.688;2023-05-07T13:57:20;23.60;68.80
47546;DHT22;50104;52.002;4.688;2023-05-07T14:02:22;23.40;68.70
47546;DHT22;50104;52.002;4.688;2023-05-07T14:07:23;23.20;69.00
47546;DHT22;50104;52.002;4.688;2023-05-07T14:12:25;23.00;69.20
47546;DHT22;50104;52.002;4.688;2023-05-07T14:17:26;22.80;69.70
47546;DHT22;50104;52.002;4.688;2023-05-07T14:22:27;22.70;70.50
47546;DHT22;50104;52.002;4.688;2023-05-07T14:27:28;22.60;70.90
47546;DHT22;50104;52.002;4.688;2023-05-07T14:32:29;22.50;71.10
47546;DHT22;50104;52.002;4.688;2023-05-07T14:37:30;22.40;71.10
47546;DHT22;50104;52.002;4.688;2023-05-07T14:42:30;22.30;71.10
47546;DHT22;50104;52.002;4.688;2023-05-07T14:47:31;22.20;71.50
47546;DHT22;50104;52.002;4.688;2023-05-07T14:52:32;22.20;71.90
47546;DHT22;50104;52.002;4.688;2023-05-07T14:57:33;22.10;72.30
47546;DHT22;50104;52.002;4.688;2023-05-07T15:02:35;22.10;72.40
47546;DHT22;50104;52.002;4.688;2023-05-07T15:07:36;22.10;72.50
47546;DHT22;50104;52.002;4.688;2023-05-07T15:12:37;22.10;72.80
47546;DHT22;50104;52.002;4.688;2023-05-07T15:17:37;22.10;72.90
47546;DHT22;50104;52.002;4.688;2023-05-07T15:22:38;22.10;73.00
47546;DHT22;50104;52.002;4.688;2023-05-07T15:27:39;22.10;72.90
47546;DHT22;50104;52.002;4.688;2023-05-07T15:32:41;22.20;73.00
47546;DHT22;50104;52.002;4.688;2023-05-07T15:37:42;22.20;72.90
47546;DHT22;50104;52.002;4.688;2023-05-07T15:42:44;22.20;72.80
47546;DHT22;50104;52.002;4.688;2023-05-07T15:47:45;22.30;72.80
47546;DHT22;50104;52.002;4.688;2023-05-07T15:52:46;22.30;72.70
47546;DHT22;50104;52.002;4.688;2023-05-07T15:57:47;22.30;72.60
47546;DHT22;50104;52.002;4.688;2023-05-07T16:02:48;22.40;72.80
47546;DHT22;50104;52.002;4.688;2023-05-07T16:07:49;22.40;72.70
47546;DHT22;50104;52.002;4.688;2023-05-07T16:12:50;22.40;72.60
47546;DHT22;50104;52.002;4.688;2023-05-07T16:17:51;22.40;72.40
47546;DHT22;50104;52.002;4.688;2023-05-07T16:23:11;22.40;72.30
47546;DHT22;50104;52.002;4.688;2023-05-07T16:28:13;22.40;72.20
47546;DHT22;50104;52.002;4.688;2023-05-07T16:33:13;22.40;72.20
47546;DHT22;50104;52.002;4.688;2023-05-07T16:38:14;22.30;72.20
47546;DHT22;50104;52.002;4.688;2023-05-07T16:43:15;22.30;72.20
47546;DHT22;50104;52.002;4.688;2023-05-07T16:48:16;22.20;72.20
47546;DHT22;50104;52.002;4.688;2023-05-07T16:53:17;22.20;72.30
47546;DHT22;50104;52.002;4.688;2023-05-07T16:58:18;22.10;72.40
47546;DHT22;50104;52.002;4.688;2023-05-07T17:03:19;22.10;72.50
47546;DHT22;50104;52.002;4.688;2023-05-07T17:08:20;22.00;72.50
47546;DHT22;50104;52.002;4.688;2023-05-07T17:13:21;21.90;72.60
47546;DHT22;50104;52.002;4.688;2023-05-07T17:18:22;21.90;72.60
47546;DHT22;50104;52.002;4.688;2023-05-07T17:23:23;21.80;72.70
47546;DHT22;50104;52.002;4.688;2023-05-07T17:28:23;21.80;72.70
47546;DHT22;50104;52.002;4.688;2023-05-07T17:33:24;21.80;72.80
47546;DHT22;50104;52.002;4.688;2023-05-07T17:38:25;21.70;72.80
47546;DHT22;50104;52.002;4.688;2023-05-07T17:43:26;21.60;72.90
47546;DHT22;50104;52.002;4.688;2023-05-07T17:48:27;21.60;73.00
47546;DHT22;50104;52.002;4.688;2023-05-07T17:53:31;21.50;73.00
47546;DHT22;50104;52.002;4.688;2023-05-07T17:58:31;21.50;73.00
47546;DHT22;50104;52.002;4.688;2023-05-07T18:03:32;21.40;73.20
47546;DHT22;50104;52.002;4.688;2023-05-07T18:08:34;21.30;73.30
47546;DHT22;50104;52.002;4.688;2023-05-07T18:13:35;21.30;73.30
47546;DHT22;50104;52.002;4.688;2023-05-07T18:18:36;21.10;73.20
47546;DHT22;50104;52.002;4.688;2023-05-07T18:23:36;21.10;73.40
47546;DHT22;50104;52.002;4.688;2023-05-07T18:28:38;21.00;73.00
47546;DHT22;50104;52.002;4.688;2023-05-07T18:33:38;20.90;73.10
47546;DHT22;50104;52.002;4.688;2023-05-07T18:38:39;20.80;73.10
47546;DHT22;50104;52.002;4.688;2023-05-07T18:43:42;20.70;73.00
47546;DHT22;50104;52.002;4.688;2023-05-07T18:48:42;20.60;73.30
47546;DHT22;50104;52.002;4.688;2023-05-07T18:53:43;20.40;73.30
47546;DHT22;50104;52.002;4.688;2023-05-07T18:58:44;20.30;73.40
47546;DHT22;50104;52.002;4.688;2023-05-07T19:03:45;20.30;73.80
47546;DHT22;50104;52.002;4.688;2023-05-07T19:08:46;20.10;73.80
47546;DHT22;50104;52.002;4.688;2023-05-07T19:13:46;20.10;73.90
47546;DHT22;50104;52.002;4.688;2023-05-07T19:18:47;20.00;74.20
47546;DHT22;50104;52.002;4.688;2023-05-07T19:23:48;19.90;74.10
47546;DHT22;50104;52.002;4.688;2023-05-07T19:28:52;19.80;74.20
47546;DHT22;50104;52.002;4.688;2023-05-07T19:33:53;19.70;74.30
47546;DHT22;50104;52.002;4.688;2023-05-07T19:38:54;19.70;74.40
47546;DHT22;50104;52.002;4.688;2023-05-07T19:43:55;19.60;74.40
47546;DHT22;50104;52.002;4.688;2023-05-07T19:48:55;19.50;74.50
47546;DHT22;50104;52.002;4.688;2023-05-07T19:53:57;19.40;74.60
47546;DHT22;50104;52.002;4.688;2023-05-07T19:58:58;19.30;74.60
47546;DHT22;50104;52.002;4.688;2023-05-07T20:03:59;19.30;74.70
47546;DHT22;50104;52.002;4.688;2023-05-07T20:09:00;19.20;74.80
47546;DHT22;50104;52.002;4.688;2023-05-07T20:14:01;19.20;74.80
47546;DHT22;50104;52.002;4.688;2023-05-07T20:19:03;19.10;75.00
47546;DHT22;50104;52.002;4.688;2023-05-07T20:24:05;19.00;75.20
47546;DHT22;50104;52.002;4.688;2023-05-07T20:29:07;19.00;75.20
47546;DHT22;50104;52.002;4.688;2023-05-07T20:34:08;18.90;75.30
47546;DHT22;50104;52.002;4.688;2023-05-07T20:39:09;18.90;75.20
47546;DHT22;50104;52.002;4.688;2023-05-07T20:44:14;18.80;75.10
47546;DHT22;50104;52.002;4.688;2023-05-07T20:49:15;18.80;75.20
47546;DHT22;50104;52.002;4.688;2023-05-07T20:54:17;18.80;75.20
47546;DHT22;50104;52.002;4.688;2023-05-07T20:59:19;18.70;75.20
47546;DHT22;50104;52.002;4.688;2023-05-07T21:04:20;18.60;75.20
47546;DHT22;50104;52.002;4.688;2023-05-07T21:09:21;18.60;75.50
47546;DHT22;50104;52.002;4.688;2023-05-07T21:14:22;18.50;75.70
47546;DHT22;50104;52.002;4.688;2023-05-07T21:19:23;18.40;75.80
47546;DHT22;50104;52.002;4.688;2023-05-07T21:24:24;18.30;75.80
47546;DHT22;50104;52.002;4.688;2023-05-07T21:29:25;18.20;76.10
47546;DHT22;50104;52.002;4.688;2023-05-07T21:34:27;18.10;76.00
47546;DHT22;50104;52.002;4.688;2023-05-07T21:39:28;18.00;76.00
47546;DHT22;50104;52.002;4.688;2023-05-07T21:44:30;17.90;76.10
47546;DHT22;50104;52.002;4.688;2023-05-07T21:49:31;17.90;76.10
47546;DHT22;50104;52.002;4.688;2023-05-07T21:54:33;17.80;76.50
47546;DHT22;50104;52.002;4.688;2023-05-07T21:59:34;17.70;76.80
47546;DHT22;50104;52.002;4.688;2023-05-07T22:04:36;17.60;77.30
47546;DHT22;50104;52.002;4.688;2023-05-07T22:09:37;17.50;77.20
47546;DHT22;50104;52.002;4.688;2023-05-07T22:14:38;17.50;77.30
47546;DHT22;50104;52.002;4.688;2023-05-07T22:19:39;17.40;77.10
47546;DHT22;50104;52.002;4.688;2023-05-07T22:24:40;17.30;77.30
47546;DHT22;50104;52.002;4.688;2023-05-07T22:29:43;17.20;77.30
47546;DHT22;50104;52.002;4.688;2023-05-07T22:34:44;17.20;77.30
47546;DHT22;50104;52.002;4.688;2023-05-07T22:39:45;17.10;77.50
47546;DHT22;50104;52.002;4.688;2023-05-07T22:44:51;17.00;77.60
47546;DHT22;50104;52.002;4.688;2023-05-07T22:49:58;16.90;77.80
47546;DHT22;50104;52.002;4.688;2023-05-07T22:54:59;16.90;78.00
47546;DHT22;50104;52.002;4.688;2023-05-07T23:00:00;16.80;77.70
47546;DHT22;50104;52.002;4.688;2023-05-07T23:05:01;16.80;77.90
47546;DHT22;50104;52.002;4.688;2023-05-07T23:10:02;16.70;77.90
47546;DHT22;50104;52.002;4.688;2023-05-07T23:15:07;16.60;77.90
47546;DHT22;50104;52.002;4.688;2023-05-07T23:20:08;16.60;77.80
47546;DHT22;50104;52.002;4.688;2023-05-07T23:25:09;16.50;77.90
47546;DHT22;50104;52.002;4.688;2023-05-07T23:30:11;16.40;78.10
47546;DHT22;50104;52.002;4.688;2023-05-07T23:35:12;16.40;78.60
47546;DHT22;50104;52.002;4.688;2023-05-07T23:40:13;16.30;78.20
47546;DHT22;50104;52.002;4.688;2023-05-07T23:45:14;16.20;78.90
47546;DHT22;50104;52.002;4.688;2023-05-07T23:50:15;16.10;79.10
47546;DHT22;50104;52.002;4.688;2023-05-07T23:55:16;16.10;79.20
